Airfield :
LOGIN :

Register | Disclaimer

   EN    FR    IT 

 










Legend :    VFR   Marginal VFR   IFR   Intensive IFR   Very Intensive IFR
Visi :
Ceiling :
>= 8 km
>= 3000ft
5 to 8 km
1000 to 3000 ft
1500m to 5 km
500 to 1000 ft
800 to 1500m
200 to 500 ft
< 800m
< 200 ft
Symbols :   Thunderstorms  Fog  Heavy snow  Heavy precipitations  Wind > 20 kt
SIGMETs :     Misc.  Thunderstorms  Icing  Turbulence  Mountain Waves  Volcanic Ashes






- Airport Elevation : 423 ft
- IATA code : PIS


LFBI - Poitiers

CURRENT METAR :
  • 301430Z AUTO 04011KT 9999 BKN021 08/05 Q1021 NOSIG

EXPIRED METARs :
  • 301400Z AUTO 03010KT 9999 FEW017 09/06 Q1020 NOSIG
  • 301330Z AUTO 04009KT 9999 SCT016 BKN022 BKN028 09/06 Q1020 NOSIG
  • 301300Z AUTO 04007KT 9999 FEW020 09/06 Q1021 NOSIG
  • 301230Z AUTO 05007KT 9999 FEW011 08/05 Q1021 BECMG BKN008
  • 301200Z AUTO 02005KT 350V060 9999 OVC010 08/06 Q1021 NOSIG

TAF AMD TAF LFBI
Valid from the 30 at 12:00 until the 01 at 12:00 UTC


301230Z 3012/0112 03006KT 9999 SCT010
TEMPO 3017/0102 SCT010 BKN014
TEMPO 0102/0106 4200 BR BKN004



MET'MAP, your aeronautical weather chart ! - Copyright ORBIFLY December 2007 - Disclaimer

ORBIFLY MET'MAP TEAM :

Programming & Development : Alexandra Zaïnal
Original concept : Baudouin d'Aumeries
Technical & hardware support : Manuel Goepfert
Assistance : Marc-Olivier Méhu




SOURCES & CREDITS :

   NOAA